createdAt,value
2022-09-03T00:05:27.999Z,17
2022-09-03T00:15:27.991Z,17
2022-09-03T00:25:28.003Z,17
2022-09-03T00:35:27.942Z,17
2022-09-03T00:45:27.926Z,17
2022-09-03T00:55:27.904Z,16.9
2022-09-03T01:05:27.912Z,16.9
2022-09-03T01:15:27.952Z,16.9
2022-09-03T01:25:27.873Z,16.9
2022-09-03T01:35:27.827Z,16.9
2022-09-03T01:45:27.799Z,16.8
2022-09-03T01:55:27.785Z,16.8
2022-09-03T02:05:27.799Z,16.8
2022-09-03T02:15:27.783Z,16.8
2022-09-03T02:25:27.754Z,16.8
2022-09-03T02:35:27.697Z,16.8
2022-09-03T02:45:27.682Z,16.9
2022-09-03T02:55:27.663Z,17
2022-09-03T03:05:27.680Z,17
2022-09-03T03:15:27.622Z,16.9
2022-09-03T03:25:27.647Z,16.8
2022-09-03T03:35:27.589Z,16.7
2022-09-03T03:45:27.604Z,16.7
2022-09-03T03:55:27.542Z,16.7
2022-09-03T04:05:27.531Z,16.7
2022-09-03T04:15:27.548Z,16.6
2022-09-03T04:25:27.518Z,16.6
2022-09-03T04:35:27.475Z,16.5
2022-09-03T04:45:27.543Z,16.6
2022-09-03T04:55:27.437Z,16.5
2022-09-03T05:05:27.413Z,16.4
2022-09-03T05:15:27.440Z,16.3
2022-09-03T05:25:27.417Z,16.2
2022-09-03T05:45:27.432Z,16.4
2022-09-03T05:55:27.322Z,16.4
2022-09-03T06:05:27.294Z,16.6
2022-09-03T06:15:27.327Z,16.7
2022-09-03T06:25:27.325Z,16.8
2022-09-03T06:35:27.234Z,16.7
2022-09-03T06:45:27.270Z,16.8
2022-09-03T06:55:27.213Z,16.9
2022-09-03T07:05:27.192Z,17
2022-09-03T07:15:27.222Z,17.3
2022-09-03T07:25:27.185Z,17.4
2022-09-03T07:35:27.128Z,17.6
2022-09-03T07:45:27.150Z,17.8
2022-09-03T07:55:27.076Z,18
2022-09-03T08:05:27.063Z,18.1
2022-09-03T08:15:27.079Z,18.2
2022-09-03T08:25:27.028Z,18.5
2022-09-03T08:35:27.018Z,18.8
2022-09-03T08:45:27.009Z,19.3
2022-09-03T08:55:26.969Z,19.6
2022-09-03T09:05:26.944Z,20
2022-09-03T09:15:26.960Z,20.6
2022-09-03T09:25:26.908Z,21.4
2022-09-03T09:35:26.883Z,23
2022-09-03T09:45:26.902Z,25.3
2022-09-03T09:55:26.853Z,27.5
2022-09-03T10:05:26.823Z,28.8
2022-09-03T10:15:26.838Z,27.7
2022-09-03T10:25:26.804Z,27
2022-09-03T10:35:26.752Z,26.8
2022-09-03T10:45:26.776Z,26.7
2022-09-03T10:55:26.709Z,26.7
2022-09-03T11:05:26.722Z,26.4
2022-09-03T11:15:27.987Z,26.1
2022-09-03T11:25:26.649Z,26
2022-09-03T11:35:26.620Z,26.1
2022-09-03T11:45:26.640Z,27.8
2022-09-03T11:55:26.581Z,29.4
2022-09-03T12:05:26.559Z,28.8
2022-09-03T12:15:26.571Z,28.9
2022-09-03T12:25:26.534Z,28.8
2022-09-03T12:46:09.395Z,30.7
2022-09-03T12:55:27.739Z,32.8
2022-09-03T13:05:26.420Z,32.5
2022-09-03T13:15:26.407Z,31.2
2022-09-03T13:25:26.526Z,31
2022-09-03T13:35:26.364Z,31
2022-09-03T13:45:26.353Z,30.4
2022-09-03T13:55:26.354Z,29.8
2022-09-03T14:05:26.303Z,30.3
2022-09-03T14:15:26.301Z,31
2022-09-03T14:25:26.300Z,32.8
2022-09-03T14:35:26.229Z,33.8
2022-09-03T14:45:26.302Z,34.1
2022-09-03T14:55:26.233Z,34.7
2022-09-03T15:05:26.179Z,35.4
2022-09-03T15:15:26.159Z,35
2022-09-03T15:25:26.210Z,35
2022-09-03T15:35:26.110Z,34.6
2022-09-03T15:45:26.143Z,33.4
2022-09-03T15:55:26.143Z,33.1
2022-09-03T16:05:26.045Z,33.5
2022-09-03T16:15:26.019Z,32.2
2022-09-03T16:35:26.020Z,32.2
2022-09-03T16:45:26.029Z,31.2
2022-09-03T16:55:25.981Z,30.6
2022-09-03T17:05:26.630Z,30.1
2022-09-03T17:15:25.895Z,29
2022-09-03T17:25:25.907Z,27.9
2022-09-03T17:35:25.848Z,27.2
2022-09-03T17:45:25.871Z,26.5
2022-09-03T17:55:25.842Z,26
2022-09-03T18:05:25.805Z,25.4
2022-09-03T18:15:25.800Z,24.6
2022-09-03T18:25:25.771Z,24.1
2022-09-03T18:35:25.726Z,23.7
2022-09-03T18:45:33.277Z,23.3
2022-09-03T18:55:25.716Z,22.3
2022-09-03T19:05:25.654Z,21.6
2022-09-03T19:15:25.639Z,20.1
2022-09-03T19:25:25.643Z,18.3
2022-09-03T19:35:25.590Z,17.7
2022-09-03T19:45:25.581Z,17.3
2022-09-03T19:55:25.587Z,16.9
2022-09-03T20:05:25.536Z,16.8
2022-09-03T20:15:25.580Z,16.8
2022-09-03T20:25:25.528Z,16.8
2022-09-03T20:35:25.480Z,16.6
2022-09-03T20:55:25.488Z,16.6
2022-09-03T21:05:25.416Z,16.7
2022-09-03T21:15:25.427Z,16.8
2022-09-03T21:25:25.409Z,16.8
2022-09-03T21:35:25.356Z,16.8
2022-09-03T21:45:25.377Z,16.8
2022-09-03T21:55:25.357Z,16.7
2022-09-03T22:05:25.311Z,16.9
2022-09-03T22:15:25.350Z,16.8
2022-09-03T22:25:25.290Z,16.8
2022-09-03T22:35:25.244Z,16.9
2022-09-03T22:45:25.264Z,16.9
2022-09-03T22:55:25.235Z,16.9
2022-09-03T23:05:25.194Z,16.8
2022-09-03T23:15:25.197Z,16.8
2022-09-03T23:25:25.204Z,16.7
2022-09-03T23:35:25.125Z,16.7
2022-09-03T23:45:25.308Z,16.7
2022-09-03T23:55:25.125Z,16.7
